sensor_id;sensor_type;location;lat;lon;timestamp;pressure;altitude;pressure_sealevel;temperature;humidity
41250;BME280;26984;59.928;30.306;2022-10-31T00:01:34;100785.50;;;1.35;71.52
41250;BME280;26984;59.928;30.306;2022-10-31T00:04:03;100772.53;;;1.32;72.90
41250;BME280;26984;59.928;30.306;2022-10-31T00:06:31;100749.94;;;1.28;72.47
41250;BME280;26984;59.928;30.306;2022-10-31T00:08:59;100797.16;;;1.24;73.32
41250;BME280;26984;59.928;30.306;2022-10-31T00:11:26;100767.97;;;1.24;74.07
41250;BME280;26984;59.928;30.306;2022-10-31T00:13:54;100779.22;;;1.18;74.50
41250;BME280;26984;59.928;30.306;2022-10-31T00:16:22;100796.28;;;1.15;75.44
41250;BME280;26984;59.928;30.306;2022-10-31T00:18:50;100801.41;;;1.17;76.09
41250;BME280;26984;59.928;30.306;2022-10-31T00:21:19;100789.44;;;1.13;75.72
41250;BME280;26984;59.928;30.306;2022-10-31T00:23:46;100811.66;;;1.12;75.87
41250;BME280;26984;59.928;30.306;2022-10-31T00:26:14;100787.94;;;1.10;76.98
41250;BME280;26984;59.928;30.306;2022-10-31T00:28:41;100803.41;;;1.15;75.50
41250;BME280;26984;59.928;30.306;2022-10-31T00:31:10;100820.63;;;1.11;76.11
41250;BME280;26984;59.928;30.306;2022-10-31T00:33:38;100814.06;;;1.05;75.36
41250;BME280;26984;59.928;30.306;2022-10-31T00:36:07;100806.13;;;1.05;76.82
41250;BME280;26984;59.928;30.306;2022-10-31T00:38:36;100807.47;;;1.09;77.57
41250;BME280;26984;59.928;30.306;2022-10-31T00:41:03;100866.69;;;1.10;77.82
41250;BME280;26984;59.928;30.306;2022-10-31T00:43:31;100828.34;;;1.04;77.70
41250;BME280;26984;59.928;30.306;2022-10-31T00:45:58;100829.31;;;1.03;78.37
41250;BME280;26984;59.928;30.306;2022-10-31T00:48:25;100820.28;;;0.96;80.07
41250;BME280;26984;59.928;30.306;2022-10-31T00:50:53;100835.06;;;0.99;79.68
41250;BME280;26984;59.928;30.306;2022-10-31T00:53:20;100821.78;;;0.99;78.39
41250;BME280;26984;59.928;30.306;2022-10-31T00:55:49;100851.97;;;0.98;78.90
41250;BME280;26984;59.928;30.306;2022-10-31T00:58:16;100840.38;;;0.99;78.80
41250;BME280;26984;59.928;30.306;2022-10-31T01:00:44;100861.34;;;0.92;78.15
41250;BME280;26984;59.928;30.306;2022-10-31T01:03:12;100884.09;;;0.94;79.38
41250;BME280;26984;59.928;30.306;2022-10-31T01:05:41;100855.25;;;0.82;79.72
41250;BME280;26984;59.928;30.306;2022-10-31T01:08:08;100846.41;;;0.91;79.66
41250;BME280;26984;59.928;30.306;2022-10-31T01:10:35;100863.69;;;0.95;78.08
41250;BME280;26984;59.928;30.306;2022-10-31T01:13:04;100916.22;;;0.91;78.53
41250;BME280;26984;59.928;30.306;2022-10-31T01:15:31;100871.88;;;0.84;79.35
41250;BME280;26984;59.928;30.306;2022-10-31T01:17:59;100876.72;;;0.88;78.64
41250;BME280;26984;59.928;30.306;2022-10-31T01:20:29;100883.59;;;0.81;79.71
41250;BME280;26984;59.928;30.306;2022-10-31T01:22:57;100920.34;;;0.76;79.78
41250;BME280;26984;59.928;30.306;2022-10-31T01:25:24;100892.84;;;0.77;79.58
41250;BME280;26984;59.928;30.306;2022-10-31T01:27:51;100882.25;;;0.67;81.25
41250;BME280;26984;59.928;30.306;2022-10-31T01:30:20;100884.59;;;0.80;80.56
41250;BME280;26984;59.928;30.306;2022-10-31T01:32:47;100902.31;;;0.80;80.27
41250;BME280;26984;59.928;30.306;2022-10-31T01:35:15;100906.38;;;0.74;80.58
41250;BME280;26984;59.928;30.306;2022-10-31T01:37:42;100897.84;;;0.80;80.90
41250;BME280;26984;59.928;30.306;2022-10-31T01:40:09;100907.91;;;0.77;81.07
41250;BME280;26984;59.928;30.306;2022-10-31T01:42:37;100910.72;;;0.75;80.92
41250;BME280;26984;59.928;30.306;2022-10-31T01:45:05;100898.41;;;0.74;80.89
41250;BME280;26984;59.928;30.306;2022-10-31T01:47:35;100904.88;;;0.71;81.93
41250;BME280;26984;59.928;30.306;2022-10-31T01:50:08;100922.44;;;0.73;81.88
41250;BME280;26984;59.928;30.306;2022-10-31T01:52:39;100928.75;;;0.71;82.30
41250;BME280;26984;59.928;30.306;2022-10-31T01:55:11;100930.97;;;0.66;82.48
41250;BME280;26984;59.928;30.306;2022-10-31T01:57:41;100944.22;;;0.66;82.15
41250;BME280;26984;59.928;30.306;2022-10-31T02:00:11;100931.84;;;0.57;83.56
41250;BME280;26984;59.928;30.306;2022-10-31T02:02:42;100956.50;;;0.67;82.94
41250;BME280;26984;59.928;30.306;2022-10-31T02:05:14;100951.19;;;0.67;83.59
41250;BME280;26984;59.928;30.306;2022-10-31T02:07:43;100944.97;;;0.59;84.52
41250;BME280;26984;59.928;30.306;2022-10-31T02:10:12;100962.81;;;0.57;84.25
41250;BME280;26984;59.928;30.306;2022-10-31T02:12:40;100979.44;;;0.59;84.28
41250;BME280;26984;59.928;30.306;2022-10-31T02:15:09;100954.19;;;0.55;85.25
41250;BME280;26984;59.928;30.306;2022-10-31T02:17:36;100949.72;;;0.55;85.64
41250;BME280;26984;59.928;30.306;2022-10-31T02:20:08;100966.31;;;0.57;85.63
41250;BME280;26984;59.928;30.306;2022-10-31T02:22:40;100958.94;;;0.51;86.17
41250;BME280;26984;59.928;30.306;2022-10-31T02:25:16;100973.72;;;0.54;86.18
41250;BME280;26984;59.928;30.306;2022-10-31T02:27:51;100968.72;;;0.51;86.33
41250;BME280;26984;59.928;30.306;2022-10-31T02:30:24;100964.25;;;0.51;87.00
41250;BME280;26984;59.928;30.306;2022-10-31T02:32:59;100982.25;;;0.47;87.08
41250;BME280;26984;59.928;30.306;2022-10-31T02:35:39;100971.63;;;0.47;88.26
41250;BME280;26984;59.928;30.306;2022-10-31T02:38:12;100983.91;;;0.39;88.91
41250;BME280;26984;59.928;30.306;2022-10-31T02:40:43;100977.66;;;0.40;88.58
41250;BME280;26984;59.928;30.306;2022-10-31T02:43:33;101026.91;;;0.33;89.33
41250;BME280;26984;59.928;30.306;2022-10-31T02:46:04;100991.31;;;0.35;88.95
41250;BME280;26984;59.928;30.306;2022-10-31T02:48:36;100999.69;;;0.31;90.18
41250;BME280;26984;59.928;30.306;2022-10-31T02:51:05;100998.16;;;0.38;90.32
41250;BME280;26984;59.928;30.306;2022-10-31T02:53:35;100996.38;;;0.29;90.47
41250;BME280;26984;59.928;30.306;2022-10-31T02:56:04;101017.81;;;0.35;90.50
41250;BME280;26984;59.928;30.306;2022-10-31T02:58:34;101031.66;;;0.29;90.30
41250;BME280;26984;59.928;30.306;2022-10-31T03:03:52;101019.78;;;0.23;91.28
41250;BME280;26984;59.928;30.306;2022-10-31T03:06:23;101030.25;;;0.25;92.04
41250;BME280;26984;59.928;30.306;2022-10-31T03:08:54;101030.81;;;0.19;92.73
41250;BME280;26984;59.928;30.306;2022-10-31T03:11:26;101037.38;;;0.15;92.97
41250;BME280;26984;59.928;30.306;2022-10-31T03:13:57;101033.88;;;0.14;93.16
41250;BME280;26984;59.928;30.306;2022-10-31T03:16:27;101059.50;;;0.14;93.53
41250;BME280;26984;59.928;30.306;2022-10-31T03:18:59;101047.13;;;0.14;94.08
41250;BME280;26984;59.928;30.306;2022-10-31T03:21:29;101067.47;;;0.14;93.38
41250;BME280;26984;59.928;30.306;2022-10-31T03:23:59;101058.13;;;0.19;93.96
41250;BME280;26984;59.928;30.306;2022-10-31T03:26:27;101068.88;;;0.08;94.63
41250;BME280;26984;59.928;30.306;2022-10-31T03:28:56;101070.97;;;0.14;94.77
41250;BME280;26984;59.928;30.306;2022-10-31T03:31:25;101064.53;;;0.17;94.98
41250;BME280;26984;59.928;30.306;2022-10-31T03:33:53;101073.06;;;0.11;94.54
41250;BME280;26984;59.928;30.306;2022-10-31T03:36:23;101078.91;;;0.05;95.31
41250;BME280;26984;59.928;30.306;2022-10-31T03:38:53;101084.78;;;0.18;94.64
41250;BME280;26984;59.928;30.306;2022-10-31T03:41:22;101096.47;;;0.06;95.31
41250;BME280;26984;59.928;30.306;2022-10-31T03:43:53;101104.56;;;0.14;94.71
41250;BME280;26984;59.928;30.306;2022-10-31T03:46:24;101093.97;;;0.14;94.97
41250;BME280;26984;59.928;30.306;2022-10-31T03:48:54;101106.38;;;0.04;95.83
41250;BME280;26984;59.928;30.306;2022-10-31T03:51:25;101079.31;;;0.10;95.43
41250;BME280;26984;59.928;30.306;2022-10-31T03:53:54;101097.59;;;0.13;95.06
41250;BME280;26984;59.928;30.306;2022-10-31T03:56:25;101107.91;;;0.16;95.14
41250;BME280;26984;59.928;30.306;2022-10-31T03:58:57;101086.44;;;0.09;95.63
41250;BME280;26984;59.928;30.306;2022-10-31T04:01:26;101086.69;;;0.06;96.03
41250;BME280;26984;59.928;30.306;2022-10-31T04:03:57;101083.34;;;0.14;95.44
41250;BME280;26984;59.928;30.306;2022-10-31T04:06:26;101081.69;;;0.13;95.87
41250;BME280;26984;59.928;30.306;2022-10-31T04:08:56;101081.56;;;0.05;96.55
41250;BME280;26984;59.928;30.306;2022-10-31T04:11:24;101090.88;;;-0.01;97.03
41250;BME280;26984;59.928;30.306;2022-10-31T04:14:14;101091.03;;;0.07;96.97
41250;BME280;26984;59.928;30.306;2022-10-31T04:16:42;101104.56;;;0.04;97.27
41250;BME280;26984;59.928;30.306;2022-10-31T04:19:11;101100.38;;;0.11;96.80
41250;BME280;26984;59.928;30.306;2022-10-31T04:21:40;101100.94;;;0.05;96.67
41250;BME280;26984;59.928;30.306;2022-10-31T04:24:10;101105.81;;;0.00;97.15
41250;BME280;26984;59.928;30.306;2022-10-31T04:26:38;101105.69;;;0.11;97.30
41250;BME280;26984;59.928;30.306;2022-10-31T04:29:05;101106.63;;;0.10;97.44
41250;BME280;26984;59.928;30.306;2022-10-31T04:31:33;101110.56;;;0.16;97.17
41250;BME280;26984;59.928;30.306;2022-10-31T04:34:00;101114.88;;;0.17;96.87
41250;BME280;26984;59.928;30.306;2022-10-31T04:36:27;101119.78;;;0.12;96.82
41250;BME280;26984;59.928;30.306;2022-10-31T04:38:56;101120.31;;;0.06;97.05
41250;BME280;26984;59.928;30.306;2022-10-31T04:41:42;101115.16;;;0.04;97.17
41250;BME280;26984;59.928;30.306;2022-10-31T04:44:13;101110.25;;;-0.01;97.70
41250;BME280;26984;59.928;30.306;2022-10-31T04:46:41;101121.66;;;-0.10;98.45
41250;BME280;26984;59.928;30.306;2022-10-31T04:49:09;101122.50;;;-0.09;98.59
41250;BME280;26984;59.928;30.306;2022-10-31T04:51:36;101119.75;;;0.02;97.88
41250;BME280;26984;59.928;30.306;2022-10-31T04:54:05;101146.94;;;0.04;97.10
41250;BME280;26984;59.928;30.306;2022-10-31T04:56:48;101148.91;;;0.12;97.63
41250;BME280;26984;59.928;30.306;2022-10-31T04:59:20;101139.16;;;0.12;97.54
41250;BME280;26984;59.928;30.306;2022-10-31T05:01:53;101141.22;;;0.09;98.04
41250;BME280;26984;59.928;30.306;2022-10-31T05:04:27;101145.53;;;0.00;98.21
41250;BME280;26984;59.928;30.306;2022-10-31T05:06:55;101151.13;;;0.07;98.06
41250;BME280;26984;59.928;30.306;2022-10-31T05:09:23;101168.56;;;0.09;98.75
41250;BME280;26984;59.928;30.306;2022-10-31T05:11:52;101177.72;;;-0.05;98.78
41250;BME280;26984;59.928;30.306;2022-10-31T05:14:48;101171.28;;;-0.12;99.78
41250;BME280;26984;59.928;30.306;2022-10-31T05:17:38;101180.66;;;0.02;99.00
41250;BME280;26984;59.928;30.306;2022-10-31T05:20:32;101181.09;;;-0.03;98.65
41250;BME280;26984;59.928;30.306;2022-10-31T05:23:19;101174.69;;;0.00;99.37
41250;BME280;26984;59.928;30.306;2022-10-31T05:25:48;101192.00;;;0.14;99.01
41250;BME280;26984;59.928;30.306;2022-10-31T05:28:17;101199.69;;;0.17;98.36
41250;BME280;26984;59.928;30.306;2022-10-31T05:30:44;101201.50;;;0.16;98.72
41250;BME280;26984;59.928;30.306;2022-10-31T05:33:15;101218.78;;;0.11;98.40
41250;BME280;26984;59.928;30.306;2022-10-31T05:36:00;101215.25;;;0.10;98.51
41250;BME280;26984;59.928;30.306;2022-10-31T05:38:34;101221.53;;;0.09;98.15
41250;BME280;26984;59.928;30.306;2022-10-31T05:41:12;101221.44;;;0.11;98.55
41250;BME280;26984;59.928;30.306;2022-10-31T05:43:44;101220.00;;;0.07;99.43
41250;BME280;26984;59.928;30.306;2022-10-31T05:46:12;101224.75;;;0.13;99.74
41250;BME280;26984;59.928;30.306;2022-10-31T05:48:58;101217.81;;;0.12;99.62
41250;BME280;26984;59.928;30.306;2022-10-31T05:51:28;101227.69;;;0.10;99.80
41250;BME280;26984;59.928;30.306;2022-10-31T05:53:56;101222.44;;;0.19;98.80
41250;BME280;26984;59.928;30.306;2022-10-31T05:56:26;101207.63;;;0.17;99.14
41250;BME280;26984;59.928;30.306;2022-10-31T05:58:54;101221.31;;;0.22;98.95
41250;BME280;26984;59.928;30.306;2022-10-31T06:01:21;101228.91;;;0.36;98.07
41250;BME280;26984;59.928;30.306;2022-10-31T06:03:49;101237.41;;;0.40;97.58
41250;BME280;26984;59.928;30.306;2022-10-31T06:06:31;101231.56;;;0.46;97.12
41250;BME280;26984;59.928;30.306;2022-10-31T06:08:58;101236.59;;;0.49;96.82
41250;BME280;26984;59.928;30.306;2022-10-31T06:11:28;101236.59;;;0.49;96.95
41250;BME280;26984;59.928;30.306;2022-10-31T06:14:01;101242.44;;;0.53;97.00
41250;BME280;26984;59.928;30.306;2022-10-31T06:16:35;101265.06;;;0.57;95.99
41250;BME280;26984;59.928;30.306;2022-10-31T06:19:22;101269.97;;;0.61;95.56
41250;BME280;26984;59.928;30.306;2022-10-31T06:21:50;101267.19;;;0.63;95.20
41250;BME280;26984;59.928;30.306;2022-10-31T06:24:17;101270.41;;;0.66;95.13
41250;BME280;26984;59.928;30.306;2022-10-31T06:26:55;101259.53;;;0.69;95.68
41250;BME280;26984;59.928;30.306;2022-10-31T06:29:22;101253.25;;;0.80;95.02
41250;BME280;26984;59.928;30.306;2022-10-31T06:32:00;101250.88;;;0.77;96.26
41250;BME280;26984;59.928;30.306;2022-10-31T06:34:29;101248.94;;;0.89;96.27
41250;BME280;26984;59.928;30.306;2022-10-31T06:36:56;101243.78;;;0.97;96.01
41250;BME280;26984;59.928;30.306;2022-10-31T06:39:25;101245.75;;;1.05;94.48
41250;BME280;26984;59.928;30.306;2022-10-31T06:41:53;101249.53;;;1.22;92.88
41250;BME280;26984;59.928;30.306;2022-10-31T06:44:24;101247.84;;;1.11;93.02
41250;BME280;26984;59.928;30.306;2022-10-31T06:46:54;101249.25;;;1.15;94.34
41250;BME280;26984;59.928;30.306;2022-10-31T06:49:41;101252.44;;;1.18;94.40
41250;BME280;26984;59.928;30.306;2022-10-31T06:52:14;101249.22;;;1.34;93.56
41250;BME280;26984;59.928;30.306;2022-10-31T06:54:42;101267.38;;;1.49;91.91
41250;BME280;26984;59.928;30.306;2022-10-31T06:57:09;101278.97;;;1.57;91.50
41250;BME280;26984;59.928;30.306;2022-10-31T06:59:39;101270.44;;;1.44;91.70
41250;BME280;26984;59.928;30.306;2022-10-31T07:02:30;101287.50;;;1.41;92.58
41250;BME280;26984;59.928;30.306;2022-10-31T07:04:58;101291.97;;;1.51;91.89
41250;BME280;26984;59.928;30.306;2022-10-31T07:07:26;101282.91;;;1.43;91.99
41250;BME280;26984;59.928;30.306;2022-10-31T07:09:53;101290.97;;;1.52;92.24
41250;BME280;26984;59.928;30.306;2022-10-31T07:12:35;101303.44;;;1.51;91.90
41250;BME280;26984;59.928;30.306;2022-10-31T07:15:05;101311.94;;;1.55;91.89
41250;BME280;26984;59.928;30.306;2022-10-31T07:17:32;101313.09;;;1.42;92.09
41250;BME280;26984;59.928;30.306;2022-10-31T07:20:00;101314.06;;;1.51;92.85
41250;BME280;26984;59.928;30.306;2022-10-31T07:22:33;101319.63;;;1.58;92.63
41250;BME280;26984;59.928;30.306;2022-10-31T07:25:02;101331.09;;;1.58;92.01
41250;BME280;26984;59.928;30.306;2022-10-31T07:27:36;101334.59;;;1.59;92.33
41250;BME280;26984;59.928;30.306;2022-10-31T07:30:06;101338.78;;;1.71;91.50
41250;BME280;26984;59.928;30.306;2022-10-31T07:32:37;101335.28;;;1.71;90.99
41250;BME280;26984;59.928;30.306;2022-10-31T07:35:05;101341.72;;;1.68;91.56
41250;BME280;26984;59.928;30.306;2022-10-31T07:37:42;101351.75;;;1.74;91.97
41250;BME280;26984;59.928;30.306;2022-10-31T07:40:13;101350.22;;;1.81;90.70
41250;BME280;26984;59.928;30.306;2022-10-31T07:42:45;101349.41;;;1.71;91.53
41250;BME280;26984;59.928;30.306;2022-10-31T07:46:07;101361.56;;;1.74;91.43
41250;BME280;26984;59.928;30.306;2022-10-31T07:49:16;101364.06;;;1.85;90.81
41250;BME280;26984;59.928;30.306;2022-10-31T07:52:11;101364.09;;;1.75;92.15
41250;BME280;26984;59.928;30.306;2022-10-31T07:54:58;101359.44;;;1.87;91.14
41250;BME280;26984;59.928;30.306;2022-10-31T07:57:26;101365.88;;;1.84;91.84
41250;BME280;26984;59.928;30.306;2022-10-31T07:59:54;101367.69;;;1.84;91.36
41250;BME280;26984;59.928;30.306;2022-10-31T08:02:24;101373.72;;;1.76;91.50
41250;BME280;26984;59.928;30.306;2022-10-31T08:05:27;101385.63;;;1.82;91.20
41250;BME280;26984;59.928;30.306;2022-10-31T08:08:12;101390.63;;;1.85;92.01
41250;BME280;26984;59.928;30.306;2022-10-31T08:10:40;101401.13;;;1.86;91.88
41250;BME280;26984;59.928;30.306;2022-10-31T08:13:08;101414.41;;;1.86;91.45
41250;BME280;26984;59.928;30.306;2022-10-31T08:15:40;101410.09;;;1.85;92.73
41250;BME280;26984;59.928;30.306;2022-10-31T08:18:12;101409.09;;;1.86;92.41
41250;BME280;26984;59.928;30.306;2022-10-31T08:20:42;101405.19;;;2.00;91.79
41250;BME280;26984;59.928;30.306;2022-10-31T08:23:10;101398.59;;;2.04;91.11
41250;BME280;26984;59.928;30.306;2022-10-31T08:25:38;101412.56;;;2.06;90.20
41250;BME280;26984;59.928;30.306;2022-10-31T08:28:06;101427.13;;;2.12;90.55
41250;BME280;26984;59.928;30.306;2022-10-31T08:30:35;101439.16;;;2.16;89.80
41250;BME280;26984;59.928;30.306;2022-10-31T08:33:30;101434.53;;;1.99;90.65
41250;BME280;26984;59.928;30.306;2022-10-31T08:36:16;101441.41;;;2.01;91.42
41250;BME280;26984;59.928;30.306;2022-10-31T08:39:06;101429.94;;;1.91;91.82
41250;BME280;26984;59.928;30.306;2022-10-31T08:41:34;101440.13;;;1.96;91.39
41250;BME280;26984;59.928;30.306;2022-10-31T08:44:01;101437.78;;;1.92;91.03
41250;BME280;26984;59.928;30.306;2022-10-31T08:46:28;101443.66;;;1.86;91.44
41250;BME280;26984;59.928;30.306;2022-10-31T08:48:57;101443.50;;;1.98;91.71
41250;BME280;26984;59.928;30.306;2022-10-31T08:51:24;101450.91;;;2.04;90.35
41250;BME280;26984;59.928;30.306;2022-10-31T08:53:54;101442.66;;;1.97;91.85
41250;BME280;26984;59.928;30.306;2022-10-31T08:56:57;101448.25;;;2.04;90.69
41250;BME280;26984;59.928;30.306;2022-10-31T08:59:45;101451.31;;;2.09;91.04
41250;BME280;26984;59.928;30.306;2022-10-31T09:02:21;101458.75;;;2.05;91.41
41250;BME280;26984;59.928;30.306;2022-10-31T09:04:53;101462.50;;;2.22;90.79
41250;BME280;26984;59.928;30.306;2022-10-31T09:07:21;101459.16;;;2.20;89.67
41250;BME280;26984;59.928;30.306;2022-10-31T09:09:48;101464.72;;;2.36;89.57
41250;BME280;26984;59.928;30.306;2022-10-31T09:12:18;101457.19;;;2.32;89.48
41250;BME280;26984;59.928;30.306;2022-10-31T09:15:08;101468.22;;;2.37;88.31
41250;BME280;26984;59.928;30.306;2022-10-31T09:17:54;101475.53;;;2.35;87.87
41250;BME280;26984;59.928;30.306;2022-10-31T09:20:32;101480.69;;;2.36;88.12
41250;BME280;26984;59.928;30.306;2022-10-31T09:23:03;101474.66;;;2.34;87.18
41250;BME280;26984;59.928;30.306;2022-10-31T09:25:33;101479.56;;;2.29;88.64
41250;BME280;26984;59.928;30.306;2022-10-31T09:28:27;101476.75;;;2.31;88.98
41250;BME280;26984;59.928;30.306;2022-10-31T09:31:00;101486.84;;;2.37;89.00
41250;BME280;26984;59.928;30.306;2022-10-31T09:33:46;101502.13;;;2.35;89.43
41250;BME280;26984;59.928;30.306;2022-10-31T09:36:47;101495.81;;;2.36;90.24
41250;BME280;26984;59.928;30.306;2022-10-31T09:39:19;101493.28;;;2.44;89.73
41250;BME280;26984;59.928;30.306;2022-10-31T09:42:01;101510.50;;;2.50;89.66
41250;BME280;26984;59.928;30.306;2022-10-31T09:44:36;101509.09;;;2.46;90.67
41250;BME280;26984;59.928;30.306;2022-10-31T09:47:16;101510.78;;;2.37;90.41
41250;BME280;26984;59.928;30.306;2022-10-31T09:50:00;101512.31;;;2.49;90.86
41250;BME280;26984;59.928;30.306;2022-10-31T09:52:32;101535.69;;;2.46;89.97
41250;BME280;26984;59.928;30.306;2022-10-31T09:55:04;101526.72;;;2.47;91.67
41250;BME280;26984;59.928;30.306;2022-10-31T09:57:35;101533.16;;;2.44;91.57
41250;BME280;26984;59.928;30.306;2022-10-31T10:00:04;101530.50;;;2.44;90.33
41250;BME280;26984;59.928;30.306;2022-10-31T10:02:41;101541.16;;;2.44;90.09
41250;BME280;26984;59.928;30.306;2022-10-31T10:05:12;101537.50;;;2.45;89.96
41250;BME280;26984;59.928;30.306;2022-10-31T10:07:46;101554.72;;;2.41;89.95
41250;BME280;26984;59.928;30.306;2022-10-31T10:10:38;101537.94;;;2.40;91.73
41250;BME280;26984;59.928;30.306;2022-10-31T10:13:38;101540.88;;;2.47;92.10
41250;BME280;26984;59.928;30.306;2022-10-31T10:16:11;101540.16;;;2.55;92.30
41250;BME280;26984;59.928;30.306;2022-10-31T10:18:43;101533.00;;;2.55;91.58
41250;BME280;26984;59.928;30.306;2022-10-31T10:21:18;101542.25;;;2.51;90.94
41250;BME280;26984;59.928;30.306;2022-10-31T10:23:53;101538.06;;;2.49;91.12
41250;BME280;26984;59.928;30.306;2022-10-31T10:26:22;101539.47;;;2.53;91.45
41250;BME280;26984;59.928;30.306;2022-10-31T10:28:54;101542.25;;;2.61;90.51
41250;BME280;26984;59.928;30.306;2022-10-31T10:31:24;101542.81;;;2.55;91.12
41250;BME280;26984;59.928;30.306;2022-10-31T10:33:59;101553.44;;;2.55;90.40
41250;BME280;26984;59.928;30.306;2022-10-31T10:36:30;101547.41;;;2.62;90.08
41250;BME280;26984;59.928;30.306;2022-10-31T10:39:02;101550.22;;;2.71;89.94
41250;BME280;26984;59.928;30.306;2022-10-31T10:41:31;101540.00;;;2.66;90.92
41250;BME280;26984;59.928;30.306;2022-10-31T10:43:59;101545.31;;;2.76;90.59
41250;BME280;26984;59.928;30.306;2022-10-31T10:46:29;101545.97;;;2.87;88.28
41250;BME280;26984;59.928;30.306;2022-10-31T10:49:17;101548.22;;;2.92;87.75
41250;BME280;26984;59.928;30.306;2022-10-31T10:51:45;101556.75;;;2.96;87.85
41250;BME280;26984;59.928;30.306;2022-10-31T10:57:03;101568.09;;;2.88;87.92
41250;BME280;26984;59.928;30.306;2022-10-31T10:59:34;101574.13;;;2.90;87.43
41250;BME280;26984;59.928;30.306;2022-10-31T11:02:02;101571.75;;;2.77;86.74
41250;BME280;26984;59.928;30.306;2022-10-31T11:04:31;101566.31;;;2.79;86.99
41250;BME280;26984;59.928;30.306;2022-10-31T11:07:03;101561.13;;;2.77;86.02
41250;BME280;26984;59.928;30.306;2022-10-31T11:09:31;101558.03;;;2.82;85.05
41250;BME280;26984;59.928;30.306;2022-10-31T11:11:58;101569.09;;;2.87;84.03
41250;BME280;26984;59.928;30.306;2022-10-31T11:14:28;101560.97;;;2.88;84.71
41250;BME280;26984;59.928;30.306;2022-10-31T11:17:06;101563.50;;;2.90;85.56
41250;BME280;26984;59.928;30.306;2022-10-31T11:19:35;101570.44;;;3.10;85.44
41250;BME280;26984;59.928;30.306;2022-10-31T11:22:05;101557.53;;;3.16;86.34
41250;BME280;26984;59.928;30.306;2022-10-31T11:24:36;101556.78;;;3.23;86.29
41250;BME280;26984;59.928;30.306;2022-10-31T11:27:09;101556.13;;;3.21;85.75
41250;BME280;26984;59.928;30.306;2022-10-31T11:29:40;101562.00;;;3.25;87.32
41250;BME280;26984;59.928;30.306;2022-10-31T11:32:08;101564.56;;;3.17;87.46
41250;BME280;26984;59.928;30.306;2022-10-31T11:34:43;101562.00;;;3.25;87.58
41250;BME280;26984;59.928;30.306;2022-10-31T11:37:12;101553.25;;;3.32;88.42
41250;BME280;26984;59.928;30.306;2022-10-31T11:39:40;101554.38;;;3.30;88.97
41250;BME280;26984;59.928;30.306;2022-10-31T11:42:08;101555.63;;;3.35;87.67
41250;BME280;26984;59.928;30.306;2022-10-31T11:44:36;101561.78;;;3.46;87.41
41250;BME280;26984;59.928;30.306;2022-10-31T11:47:04;101558.13;;;3.47;88.24
41250;BME280;26984;59.928;30.306;2022-10-31T11:49:34;101561.16;;;3.52;87.30
41250;BME280;26984;59.928;30.306;2022-10-31T11:52:04;101564.38;;;3.55;87.82
41250;BME280;26984;59.928;30.306;2022-10-31T11:54:32;101566.34;;;3.53;86.63
41250;BME280;26984;59.928;30.306;2022-10-31T11:57:02;101563.41;;;3.56;86.48
41250;BME280;26984;59.928;30.306;2022-10-31T11:59:30;101561.66;;;3.65;86.43
41250;BME280;26984;59.928;30.306;2022-10-31T12:01:59;101579.53;;;3.55;86.81
41250;BME280;26984;59.928;30.306;2022-10-31T12:04:32;101568.19;;;3.53;85.94
41250;BME280;26984;59.928;30.306;2022-10-31T12:07:04;101575.94;;;3.46;87.12
41250;BME280;26984;59.928;30.306;2022-10-31T12:09:32;101572.13;;;3.49;87.62
41250;BME280;26984;59.928;30.306;2022-10-31T12:12:12;101578.69;;;3.54;87.44
41250;BME280;26984;59.928;30.306;2022-10-31T12:14:43;101583.56;;;3.59;86.54
41250;BME280;26984;59.928;30.306;2022-10-31T12:17:13;101571.53;;;3.55;85.18
41250;BME280;26984;59.928;30.306;2022-10-31T12:19:46;101584.31;;;3.51;84.79
41250;BME280;26984;59.928;30.306;2022-10-31T12:22:18;101578.44;;;3.48;85.77
41250;BME280;26984;59.928;30.306;2022-10-31T12:24:54;101597.50;;;3.53;85.06
41250;BME280;26984;59.928;30.306;2022-10-31T12:27:28;101578.44;;;3.48;84.41
41250;BME280;26984;59.928;30.306;2022-10-31T12:30:01;101578.03;;;3.43;84.16
41250;BME280;26984;59.928;30.306;2022-10-31T12:32:32;101580.84;;;3.41;84.48
41250;BME280;26984;59.928;30.306;2022-10-31T12:35:10;101578.78;;;3.35;84.35
41250;BME280;26984;59.928;30.306;2022-10-31T12:37:45;101570.50;;;3.38;85.19
41250;BME280;26984;59.928;30.306;2022-10-31T12:40:27;101571.63;;;3.35;85.09
41250;BME280;26984;59.928;30.306;2022-10-31T12:43:03;101570.63;;;3.36;85.55
41250;BME280;26984;59.928;30.306;2022-10-31T12:45:39;101567.72;;;3.30;86.15
41250;BME280;26984;59.928;30.306;2022-10-31T12:48:15;101606.97;;;3.28;85.50
41250;BME280;26984;59.928;30.306;2022-10-31T12:50:50;101593.66;;;3.28;85.48
41250;BME280;26984;59.928;30.306;2022-10-31T12:53:26;101603.44;;;3.37;84.91
41250;BME280;26984;59.928;30.306;2022-10-31T12:55:58;101604.16;;;3.29;85.11
41250;BME280;26984;59.928;30.306;2022-10-31T12:58:30;101598.09;;;3.37;85.07
41250;BME280;26984;59.928;30.306;2022-10-31T13:01:02;101601.19;;;3.42;85.02
41250;BME280;26984;59.928;30.306;2022-10-31T13:03:35;101605.06;;;3.48;85.01
41250;BME280;26984;59.928;30.306;2022-10-31T13:06:08;101598.06;;;3.47;82.98
41250;BME280;26984;59.928;30.306;2022-10-31T13:08:38;101606.78;;;3.49;83.20
41250;BME280;26984;59.928;30.306;2022-10-31T13:11:08;101608.88;;;3.45;83.13
41250;BME280;26984;59.928;30.306;2022-10-31T13:13:38;101610.69;;;3.45;82.79
41250;BME280;26984;59.928;30.306;2022-10-31T13:16:09;101623.16;;;3.44;82.60
41250;BME280;26984;59.928;30.306;2022-10-31T13:18:39;101616.34;;;3.42;81.80
41250;BME280;26984;59.928;30.306;2022-10-31T13:21:10;101618.25;;;3.49;80.80
41250;BME280;26984;59.928;30.306;2022-10-31T13:23:39;101619.53;;;3.45;81.10